createdAt,value
2022-09-20T00:01:15.449Z,11.70
2022-09-20T00:03:45.268Z,11.70
2022-09-20T00:06:17.638Z,11.80
2022-09-20T00:08:44.812Z,11.70
2022-09-20T00:11:18.204Z,11.70
2022-09-20T00:13:47.293Z,11.60
2022-09-20T00:16:26.104Z,11.70
2022-09-20T00:18:54.826Z,11.80
2022-09-20T00:21:24.421Z,11.70
2022-09-20T00:23:52.716Z,11.80
2022-09-20T00:26:20.190Z,11.90
2022-09-20T00:28:47.333Z,11.80
2022-09-20T00:31:15.356Z,11.80
2022-09-20T00:34:00.960Z,11.70
2022-09-20T00:36:27.941Z,11.70
2022-09-20T00:38:59.298Z,11.60
2022-09-20T00:41:27.047Z,11.50
2022-09-20T00:43:54.476Z,11.40
2022-09-20T00:46:44.040Z,11.40
2022-09-20T00:49:25.751Z,11.40
2022-09-20T00:51:57.082Z,11.30
2022-09-20T00:54:25.652Z,11.30
2022-09-20T00:56:52.758Z,11.20
2022-09-20T00:59:37.916Z,11.30
2022-09-20T01:02:13.938Z,11.20
2022-09-20T01:04:42.840Z,11.30
2022-09-20T01:07:13.777Z,11.20
2022-09-20T01:09:40.614Z,11.30
2022-09-20T01:12:13.122Z,11.40
2022-09-20T01:14:42.780Z,11.30
2022-09-20T01:17:11.463Z,11.30
2022-09-20T01:19:59.342Z,11.40
2022-09-20T01:22:36.170Z,11.30
2022-09-20T01:25:46.863Z,11.20
2022-09-20T01:28:14.549Z,11.30
2022-09-20T01:30:51.719Z,11.40
2022-09-20T01:33:36.701Z,11.40
2022-09-20T01:36:05.677Z,11.40
2022-09-20T01:38:56.243Z,11.30
2022-09-20T01:41:48.963Z,11.20
2022-09-20T01:44:29.625Z,11.20
2022-09-20T01:47:27.413Z,11.20
2022-09-20T01:50:08.078Z,11.20
2022-09-20T01:52:37.962Z,11.20
2022-09-20T01:55:36.762Z,11.20
2022-09-20T01:58:15.463Z,11.20
2022-09-20T02:01:01.134Z,11.20
2022-09-20T02:03:49.661Z,11.20
2022-09-20T02:07:10.376Z,11.20
2022-09-20T02:10:14.447Z,11.20
2022-09-20T02:12:41.216Z,11.20
2022-09-20T02:15:25.838Z,11.20
2022-09-20T02:18:11.241Z,11.40
2022-09-20T02:20:53.939Z,11.30
2022-09-20T02:23:54.719Z,11.30
2022-09-20T02:26:33.292Z,11.20
2022-09-20T02:29:40.488Z,11.30
2022-09-20T02:32:25.280Z,11.30
2022-09-20T02:35:13.754Z,11.20
2022-09-20T02:37:43.359Z,11.20
2022-09-20T02:40:37.831Z,11.20
2022-09-20T02:44:03.356Z,11.20
2022-09-20T02:46:48.544Z,11.20
2022-09-20T02:49:28.969Z,11.10
2022-09-20T02:52:12.429Z,11.10
2022-09-20T02:55:02.234Z,11.00
2022-09-20T02:57:59.697Z,10.90
2022-09-20T03:00:35.098Z,10.90
2022-09-20T03:03:46.548Z,10.90
2022-09-20T03:06:37.479Z,10.90
2022-09-20T03:09:34.962Z,10.90
2022-09-20T03:12:20.240Z,10.80
2022-09-20T03:14:57.585Z,10.70
2022-09-20T03:17:27.182Z,10.70
2022-09-20T03:20:15.674Z,10.70
2022-09-20T03:23:09.627Z,10.60
2022-09-20T03:25:55.442Z,10.60
2022-09-20T03:28:34.440Z,10.60
2022-09-20T03:31:16.609Z,10.50
2022-09-20T03:33:55.656Z,10.50
2022-09-20T03:36:28.448Z,10.40
2022-09-20T03:39:16.291Z,10.30
2022-09-20T03:42:07.358Z,10.20
2022-09-20T03:44:46.909Z,10.20
2022-09-20T03:47:42.862Z,10.20
2022-09-20T03:50:36.050Z,10.20
2022-09-20T03:53:33.562Z,10.20
2022-09-20T03:56:27.012Z,10.20
2022-09-20T03:59:09.060Z,10.30
2022-09-20T04:01:47.280Z,10.30
2022-09-20T04:04:30.532Z,10.40
2022-09-20T04:06:58.376Z,10.40
2022-09-20T04:09:25.078Z,10.30
2022-09-20T04:12:30.681Z,10.40
2022-09-20T04:15:13.058Z,10.40
2022-09-20T04:17:56.993Z,10.40
2022-09-20T04:20:54.869Z,10.40
2022-09-20T04:23:49.116Z,10.50
2022-09-20T04:26:29.018Z,10.50
2022-09-20T04:29:26.884Z,10.50
2022-09-20T04:32:15.012Z,10.50
2022-09-20T04:35:14.074Z,10.40
2022-09-20T04:37:44.302Z,10.40
2022-09-20T04:40:23.146Z,10.40
2022-09-20T04:43:23.394Z,10.40
2022-09-20T04:46:40.745Z,10.40
2022-09-20T04:49:33.758Z,10.50
2022-09-20T04:52:19.363Z,10.60
2022-09-20T04:55:12.488Z,10.50
2022-09-20T04:58:10.896Z,10.40
2022-09-20T05:01:19.547Z,10.40
2022-09-20T05:04:11.107Z,10.40
2022-09-20T05:06:46.730Z,10.40
2022-09-20T05:09:33.444Z,10.50
2022-09-20T05:12:09.688Z,10.50
2022-09-20T05:15:06.424Z,10.40
2022-09-20T05:17:52.713Z,10.40
2022-09-20T05:20:42.741Z,10.40
2022-09-20T05:23:17.933Z,10.40
2022-09-20T05:26:17.175Z,10.40
2022-09-20T05:29:11.721Z,10.50
2022-09-20T05:32:00.924Z,10.40
2022-09-20T05:34:42.549Z,10.50
2022-09-20T05:37:46.401Z,10.50
2022-09-20T05:40:39.364Z,10.50
2022-09-20T05:43:11.978Z,10.50
2022-09-20T05:46:05.133Z,10.50
2022-09-20T05:48:52.222Z,10.60
2022-09-20T05:51:35.693Z,10.60
2022-09-20T05:54:33.475Z,10.60
2022-09-20T05:57:19.412Z,10.70
2022-09-20T06:00:19.784Z,10.70
2022-09-20T06:03:22.149Z,10.70
2022-09-20T06:06:08.177Z,10.70
2022-09-20T06:08:44.594Z,10.80
2022-09-20T06:11:29.870Z,10.90
2022-09-20T06:14:11.877Z,10.90
2022-09-20T06:17:07.647Z,11.00
2022-09-20T06:19:56.213Z,11.00
2022-09-20T06:22:47.307Z,11.10
2022-09-20T06:25:20.169Z,11.10
2022-09-20T06:28:25.211Z,11.20
2022-09-20T06:30:54.114Z,11.20
2022-09-20T06:33:22.679Z,11.20
2022-09-20T06:36:31.240Z,11.20
2022-09-20T06:40:01.430Z,11.30
2022-09-20T06:42:29.682Z,11.30
2022-09-20T06:44:56.583Z,11.30
2022-09-20T06:47:23.593Z,11.40
2022-09-20T06:49:50.562Z,11.40
2022-09-20T06:52:19.495Z,11.60
2022-09-20T06:54:53.944Z,11.60
2022-09-20T06:57:38.993Z,11.60
2022-09-20T07:00:10.189Z,11.60
2022-09-20T07:02:37.030Z,11.50
2022-09-20T07:05:04.738Z,11.40
2022-09-20T07:07:31.605Z,11.50
2022-09-20T07:09:58.665Z,11.70
2022-09-20T07:12:25.744Z,11.90
2022-09-20T07:14:52.689Z,11.90
2022-09-20T07:17:19.573Z,12.00
2022-09-20T07:19:46.412Z,11.90
2022-09-20T07:22:13.207Z,12.10
2022-09-20T07:24:41.391Z,12.10
2022-09-20T07:27:08.924Z,12.10
2022-09-20T07:29:35.824Z,12.20
2022-09-20T07:32:02.804Z,12.30
2022-09-20T07:34:29.804Z,12.30
2022-09-20T07:36:59.755Z,12.30
2022-09-20T07:39:27.213Z,12.30
2022-09-20T07:41:54.176Z,12.30
2022-09-20T07:44:21.595Z,12.30
2022-09-20T07:46:53.151Z,12.30
2022-09-20T07:49:20.501Z,12.50
2022-09-20T07:51:48.164Z,12.50
2022-09-20T07:54:15.521Z,12.50
2022-09-20T07:56:42.744Z,12.70
2022-09-20T07:59:12.278Z,12.60
2022-09-20T08:01:39.772Z,12.70
2022-09-20T08:04:08.776Z,12.70
2022-09-20T08:06:40.151Z,13.10
2022-09-20T08:09:10.926Z,13.00
2022-09-20T08:11:39.594Z,13.20
2022-09-20T08:14:09.049Z,13.30
2022-09-20T08:16:48.963Z,13.30
2022-09-20T08:19:21.741Z,13.10
2022-09-20T08:21:50.779Z,13.00
2022-09-20T08:24:17.704Z,13.00
2022-09-20T08:26:45.372Z,12.90
2022-09-20T08:29:13.418Z,12.80
2022-09-20T08:31:42.510Z,12.80
2022-09-20T08:34:12.267Z,12.90
2022-09-20T08:36:41.460Z,13.00
2022-09-20T08:42:08.092Z,13.00
2022-09-20T08:44:45.948Z,13.20
2022-09-20T08:47:26.485Z,13.30
2022-09-20T08:49:57.883Z,13.30
2022-09-20T08:52:37.335Z,13.30
2022-09-20T08:55:22.413Z,13.40
2022-09-20T08:57:53.088Z,13.40
2022-09-20T09:00:31.975Z,13.50
2022-09-20T09:03:03.866Z,13.50
2022-09-20T09:05:40.659Z,13.40
2022-09-20T09:08:16.764Z,13.40
2022-09-20T09:10:54.230Z,13.60
2022-09-20T09:13:33.123Z,14.00
2022-09-20T09:16:06.539Z,14.30
2022-09-20T09:18:40.026Z,14.40
2022-09-20T09:21:09.460Z,14.30
2022-09-20T09:23:50.979Z,14.40
2022-09-20T09:26:23.627Z,14.40
2022-09-20T09:29:14.247Z,14.50
2022-09-20T09:31:41.297Z,14.30
2022-09-20T09:34:28.806Z,14.20
2022-09-20T09:36:56.718Z,14.30
2022-09-20T09:39:38.314Z,14.40
2022-09-20T09:42:23.594Z,14.40
2022-09-20T09:44:50.515Z,14.50
2022-09-20T09:47:28.044Z,14.60
2022-09-20T09:50:02.600Z,14.60
2022-09-20T09:52:33.476Z,14.60
2022-09-20T09:55:05.503Z,14.60
2022-09-20T09:58:03.838Z,14.50
2022-09-20T10:00:35.771Z,14.60
2022-09-20T10:03:11.209Z,14.60
2022-09-20T10:05:52.995Z,14.60
2022-09-20T10:08:41.630Z,14.70
2022-09-20T10:11:25.024Z,14.90
2022-09-20T10:14:25.941Z,14.90
2022-09-20T10:16:53.154Z,14.80
2022-09-20T10:19:48.947Z,14.70
2022-09-20T10:22:24.890Z,14.70
2022-09-20T10:25:20.420Z,14.50
2022-09-20T10:27:48.410Z,14.60
2022-09-20T10:30:25.952Z,14.60
2022-09-20T10:33:18.409Z,14.50
2022-09-20T10:36:11.280Z,14.40
2022-09-20T10:38:51.158Z,14.50
2022-09-20T10:41:59.722Z,14.50
2022-09-20T10:44:40.062Z,14.50
2022-09-20T10:47:14.686Z,14.60
2022-09-20T10:49:52.946Z,14.50
2022-09-20T10:52:57.780Z,14.50
2022-09-20T10:56:20.146Z,14.50
2022-09-20T10:59:07.152Z,14.40
2022-09-20T11:01:49.381Z,14.50
2022-09-20T11:04:37.900Z,14.40
2022-09-20T11:07:07.442Z,14.30
2022-09-20T11:09:40.656Z,14.10
2022-09-20T11:12:39.635Z,14.00
2022-09-20T11:15:17.953Z,14.10
2022-09-20T11:18:25.045Z,14.00
2022-09-20T11:21:04.174Z,14.10
2022-09-20T11:23:44.489Z,14.20
2022-09-20T11:26:16.807Z,14.30
2022-09-20T11:28:50.665Z,14.40
2022-09-20T11:31:26.985Z,14.50
2022-09-20T11:34:03.480Z,14.60
2022-09-20T11:37:00.944Z,14.70
2022-09-20T11:39:44.357Z,14.80
2022-09-20T11:42:16.753Z,14.90
2022-09-20T11:44:43.665Z,14.80
2022-09-20T11:47:13.221Z,14.80
2022-09-20T11:49:58.148Z,14.60
2022-09-20T11:52:59.952Z,14.50
2022-09-20T11:55:50.844Z,14.50
2022-09-20T11:58:22.446Z,14.60
2022-09-20T12:00:55.178Z,14.60
2022-09-20T12:03:38.960Z,14.80
2022-09-20T12:06:25.628Z,14.70
2022-09-20T12:08:52.964Z,14.90
2022-09-20T12:11:42.004Z,14.90
2022-09-20T12:14:25.260Z,14.80
2022-09-20T12:16:52.505Z,14.50
2022-09-20T12:19:34.368Z,14.40
2022-09-20T12:22:01.140Z,14.70
2022-09-20T12:24:33.945Z,14.50
2022-09-20T12:27:21.190Z,14.40
2022-09-20T12:29:47.901Z,14.30
2022-09-20T12:32:31.693Z,14.40
2022-09-20T12:34:58.482Z,14.40
2022-09-20T12:37:26.456Z,14.40
2022-09-20T12:39:55.684Z,14.50
2022-09-20T12:42:30.461Z,14.40
2022-09-20T12:45:03.556Z,14.20
2022-09-20T12:47:37.461Z,14.20
2022-09-20T12:50:33.210Z,14.20
2022-09-20T12:53:06.332Z,14.20
2022-09-20T12:56:04.282Z,14.30
2022-09-20T12:58:45.116Z,14.30
2022-09-20T13:01:14.421Z,14.50
2022-09-20T13:03:43.838Z,14.50
2022-09-20T13:06:19.820Z,14.70
2022-09-20T13:09:01.640Z,14.80
2022-09-20T13:11:29.960Z,14.70
2022-09-20T13:14:12.014Z,14.70
2022-09-20T13:16:57.721Z,14.70
2022-09-20T13:19:49.318Z,14.90
2022-09-20T13:22:23.163Z,15.00
2022-09-20T13:24:59.972Z,15.30
2022-09-20T13:27:32.268Z,16.00
2022-09-20T13:30:21.880Z,17.20
2022-09-20T13:32:50.243Z,18.20
2022-09-20T13:35:21.514Z,18.90
2022-09-20T13:37:58.437Z,19.70
2022-09-20T13:40:49.111Z,19.60
2022-09-20T13:43:29.763Z,18.40
2022-09-20T13:45:59.111Z,16.00
2022-09-20T13:48:30.435Z,16.10
2022-09-20T13:50:57.968Z,16.40
2022-09-20T13:53:41.559Z,16.30
2022-09-20T13:56:28.783Z,16.40
2022-09-20T13:58:58.972Z,16.40
2022-09-20T14:01:35.283Z,16.60
2022-09-20T14:04:24.580Z,16.50
2022-09-20T14:06:54.441Z,16.20
2022-09-20T14:09:28.848Z,15.60
2022-09-20T14:11:57.361Z,15.50
2022-09-20T14:14:25.092Z,15.80
2022-09-20T14:16:54.602Z,15.50
2022-09-20T14:19:27.312Z,15.60
2022-09-20T14:21:54.910Z,15.50
2022-09-20T14:24:31.885Z,15.10
2022-09-20T14:27:04.904Z,14.80
2022-09-20T14:29:34.492Z,14.90
2022-09-20T14:32:25.918Z,14.90
2022-09-20T14:34:56.078Z,14.90
2022-09-20T14:37:26.100Z,14.70
2022-09-20T14:39:58.147Z,14.80
2022-09-20T14:42:35.547Z,14.70
2022-09-20T14:45:05.162Z,14.70
2022-09-20T14:47:40.026Z,14.70
2022-09-20T14:50:35.433Z,14.60
2022-09-20T14:53:26.865Z,14.80
2022-09-20T14:56:04.098Z,14.80
2022-09-20T14:58:31.483Z,14.70
2022-09-20T15:01:24.459Z,14.70
2022-09-20T15:03:52.501Z,14.60
2022-09-20T15:06:19.877Z,14.40
2022-09-20T15:08:47.024Z,14.50
2022-09-20T15:11:18.726Z,14.40
2022-09-20T15:13:46.101Z,14.40
2022-09-20T15:16:14.807Z,14.40
2022-09-20T15:18:43.808Z,14.50
2022-09-20T15:21:11.540Z,15.00
2022-09-20T15:23:39.521Z,16.70
2022-09-20T15:26:06.928Z,18.20
2022-09-20T15:28:34.428Z,19.10
2022-09-20T15:31:01.412Z,19.80
2022-09-20T15:33:31.362Z,19.50
2022-09-20T15:35:58.998Z,18.90
2022-09-20T15:38:27.017Z,18.10
2022-09-20T15:40:54.711Z,17.70
2022-09-20T15:43:27.971Z,17.40
2022-09-20T15:46:00.690Z,17.60
2022-09-20T15:48:29.995Z,17.30
2022-09-20T15:51:04.232Z,16.60
2022-09-20T15:53:33.529Z,16.50
2022-09-20T15:56:02.476Z,16.20
2022-09-20T15:58:35.470Z,16.00
2022-09-20T16:01:07.973Z,16.30
2022-09-20T16:03:36.016Z,16.10
2022-09-20T16:06:05.460Z,15.80
2022-09-20T16:08:33.488Z,15.70
2022-09-20T16:11:01.065Z,15.30
2022-09-20T16:13:28.524Z,15.00
2022-09-20T16:15:56.771Z,14.90
2022-09-20T16:18:43.051Z,14.80
2022-09-20T16:21:12.433Z,14.70
2022-09-20T16:23:46.812Z,14.70
2022-09-20T16:26:13.580Z,14.80
2022-09-20T16:28:45.135Z,14.70
2022-09-20T16:31:33.230Z,14.90
2022-09-20T16:34:00.633Z,14.70
2022-09-20T16:36:27.809Z,14.80
2022-09-20T16:38:58.575Z,14.80
2022-09-20T16:41:27.004Z,14.50
2022-09-20T16:43:54.434Z,14.50
2022-09-20T16:46:25.125Z,14.40
2022-09-20T16:48:53.718Z,14.40
2022-09-20T16:51:24.080Z,14.60
2022-09-20T16:53:55.634Z,14.60
2022-09-20T16:56:28.164Z,14.60
2022-09-20T16:58:55.634Z,14.40
2022-09-20T17:01:23.169Z,14.40
2022-09-20T17:03:50.123Z,14.40
2022-09-20T17:06:18.259Z,14.30
2022-09-20T17:08:46.802Z,14.20
2022-09-20T17:11:21.801Z,14.20
2022-09-20T17:13:51.399Z,14.20
2022-09-20T17:16:21.624Z,14.30
2022-09-20T17:18:58.162Z,14.30
2022-09-20T17:21:26.475Z,14.20
2022-09-20T17:23:55.319Z,14.20
2022-09-20T17:26:33.364Z,14.10
2022-09-20T17:29:02.204Z,14.20
2022-09-20T17:31:35.263Z,14.20
2022-09-20T17:34:04.060Z,14.20
2022-09-20T17:36:35.996Z,14.10
2022-09-20T17:39:04.582Z,14.00
2022-09-20T17:41:33.695Z,14.00
2022-09-20T17:44:02.766Z,13.90
2022-09-20T17:46:31.831Z,13.80
2022-09-20T17:49:04.596Z,13.80
2022-09-20T17:51:34.369Z,13.80
2022-09-20T17:54:01.482Z,13.90
2022-09-20T17:56:29.484Z,13.90
2022-09-20T17:58:57.176Z,13.90
2022-09-20T18:01:26.160Z,13.80
2022-09-20T18:03:56.123Z,14.00
2022-09-20T18:06:27.941Z,13.80
2022-09-20T18:09:02.913Z,13.70
2022-09-20T18:11:29.697Z,13.80
2022-09-20T18:13:56.413Z,13.80
2022-09-20T18:16:23.907Z,13.80
2022-09-20T18:18:51.043Z,13.90
2022-09-20T18:21:20.486Z,13.80
2022-09-20T18:23:48.439Z,13.70
2022-09-20T18:26:23.615Z,13.70
2022-09-20T18:29:06.091Z,13.60
2022-09-20T18:31:36.133Z,13.70
2022-09-20T18:34:34.674Z,13.60
2022-09-20T18:37:02.968Z,13.60
2022-09-20T18:39:32.533Z,13.90
2022-09-20T18:42:00.104Z,13.70
2022-09-20T18:44:28.325Z,13.60
2022-09-20T18:46:55.349Z,13.60
2022-09-20T18:49:22.851Z,13.50
2022-09-20T18:51:50.053Z,13.50
2022-09-20T18:54:17.894Z,13.50
2022-09-20T18:56:46.916Z,13.50
2022-09-20T18:59:18.296Z,13.40
2022-09-20T19:01:53.384Z,13.40
2022-09-20T19:04:38.559Z,13.30
2022-09-20T19:07:05.293Z,13.40
2022-09-20T19:09:40.371Z,13.30
2022-09-20T19:12:30.527Z,13.20
2022-09-20T19:15:10.458Z,13.10
2022-09-20T19:18:04.461Z,13.10
2022-09-20T19:20:48.639Z,13.00
2022-09-20T19:23:36.669Z,13.10
2022-09-20T19:26:22.741Z,13.00
2022-09-20T19:28:59.479Z,12.90
2022-09-20T19:31:29.150Z,12.90
2022-09-20T19:33:57.983Z,12.90
2022-09-20T19:36:39.757Z,12.90
2022-09-20T19:39:44.172Z,12.80
2022-09-20T19:42:47.614Z,12.70
2022-09-20T19:45:31.736Z,12.70
2022-09-20T19:48:06.969Z,12.60
2022-09-20T19:50:49.796Z,12.60
2022-09-20T19:53:18.689Z,12.50
2022-09-20T19:56:17.892Z,12.40
2022-09-20T19:58:46.629Z,12.30
2022-09-20T20:01:13.850Z,12.30
2022-09-20T20:03:40.938Z,12.30
2022-09-20T20:06:27.422Z,12.30
2022-09-20T20:09:07.564Z,12.20
2022-09-20T20:11:49.491Z,12.10
2022-09-20T20:14:46.859Z,12.10
2022-09-20T20:17:36.048Z,12.10
2022-09-20T20:20:22.403Z,12.00
2022-09-20T20:23:19.219Z,12.10
2022-09-20T20:25:49.940Z,12.10
2022-09-20T20:28:16.851Z,12.10
2022-09-20T20:30:43.745Z,12.20
2022-09-20T20:33:15.604Z,12.20
2022-09-20T20:35:42.381Z,12.10
2022-09-20T20:38:11.559Z,12.00
2022-09-20T20:40:39.190Z,12.10
2022-09-20T20:43:06.133Z,12.00
2022-09-20T20:45:32.998Z,12.10
2022-09-20T20:47:59.888Z,12.00
2022-09-20T20:50:28.074Z,12.00
2022-09-20T20:52:56.308Z,12.00
2022-09-20T20:55:24.675Z,11.90
2022-09-20T20:57:54.333Z,11.80
2022-09-20T21:00:21.088Z,11.70
2022-09-20T21:02:47.904Z,11.80
2022-09-20T21:05:15.451Z,11.70
2022-09-20T21:07:42.168Z,11.60
2022-09-20T21:10:09.488Z,11.50
2022-09-20T21:12:36.288Z,11.50
2022-09-20T21:15:03.212Z,11.30
2022-09-20T21:17:35.299Z,11.20
2022-09-20T21:20:03.343Z,11.20
2022-09-20T21:22:31.140Z,11.10
2022-09-20T21:24:58.656Z,11.10
2022-09-20T21:27:26.150Z,11.00
2022-09-20T21:29:52.880Z,11.00
2022-09-20T21:32:19.944Z,11.00
2022-09-20T21:34:46.716Z,10.90
2022-09-20T21:37:13.780Z,10.90
2022-09-20T21:39:40.542Z,11.00
2022-09-20T21:42:07.574Z,11.00
2022-09-20T21:44:34.426Z,11.00
2022-09-20T21:47:01.178Z,10.90
2022-09-20T21:49:28.040Z,10.80
2022-09-20T21:51:54.851Z,10.70
2022-09-20T21:54:21.590Z,10.60
2022-09-20T21:56:49.951Z,10.60
2022-09-20T21:59:16.816Z,10.60
2022-09-20T22:01:43.613Z,10.60
2022-09-20T22:04:12.354Z,10.50
2022-09-20T22:06:42.031Z,10.50
2022-09-20T22:09:11.207Z,10.40
2022-09-20T22:11:40.872Z,10.40
2022-09-20T22:14:08.592Z,10.40
2022-09-20T22:16:37.935Z,10.40
2022-09-20T22:19:05.876Z,10.30
2022-09-20T22:21:35.091Z,10.40
2022-09-20T22:24:04.442Z,10.30
2022-09-20T22:26:37.196Z,10.30
2022-09-20T22:29:04.758Z,10.40
2022-09-20T22:31:33.880Z,10.40
2022-09-20T22:34:06.216Z,10.30
2022-09-20T22:36:35.612Z,10.30
2022-09-20T22:39:04.030Z,10.20
2022-09-20T22:41:30.899Z,10.10
2022-09-20T22:43:57.697Z,10.10
2022-09-20T22:46:26.808Z,10.00
2022-09-20T22:48:54.096Z,10.10
2022-09-20T22:51:23.077Z,10.10
2022-09-20T22:53:52.203Z,10.00
2022-09-20T22:56:29.313Z,10.00
2022-09-20T22:59:04.464Z,10.00
2022-09-20T23:01:34.097Z,9.90
2022-09-20T23:04:13.474Z,9.80
2022-09-20T23:06:42.846Z,9.70
2022-09-20T23:09:12.907Z,9.60
2022-09-20T23:11:43.488Z,9.50
2022-09-20T23:14:13.221Z,9.50
2022-09-20T23:16:40.613Z,9.40
2022-09-20T23:19:08.310Z,9.50
2022-09-20T23:21:37.255Z,9.40
2022-09-20T23:24:06.590Z,9.30
2022-09-20T23:26:39.345Z,9.40
2022-09-20T23:29:09.215Z,9.30
2022-09-20T23:31:37.708Z,9.30
2022-09-20T23:34:06.622Z,9.30
2022-09-20T23:36:36.289Z,9.30
2022-09-20T23:39:03.328Z,9.20
2022-09-20T23:41:30.207Z,9.10
2022-09-20T23:43:57.617Z,9.10
2022-09-20T23:46:26.338Z,9.00
2022-09-20T23:48:53.761Z,8.90
2022-09-20T23:51:24.837Z,9.00
2022-09-20T23:53:52.673Z,9.00
2022-09-20T23:56:20.829Z,9.00
2022-09-20T23:58:48.651Z,9.00
